Time;durP1;ratioP1;P1;durP2;ratioP2;P2;SDS_P1;SDS_P2;PMS_P1;PMS_P2;Temp;Humidity;BMP_temperature;BMP_pressure;BME280_temperature;BME280_humidity;BME280_pressure;Samples;Min_cycle;Max_cycle;Signal;HPM_P1;HPM_P2
2023/09/11 00:01:33;;;;;;;4.63;2.30;;;;;;;18.01;69.33;95201.72;4783752;29;20433;-68
2023/09/11 00:03:59;;;;;;;5.68;2.40;;;;;;;18.01;69.42;95207.84;4783527;29;20497;-68
2023/09/11 00:06:25;;;;;;;3.60;2.05;;;;;;;17.99;69.44;95201.97;4784336;30;20277;-69
2023/09/11 00:08:51;;;;;;;7.13;2.40;;;;;;;17.95;69.76;95208.84;4799753;29;20447;-69
2023/09/11 00:11:17;;;;;;;4.65;2.30;;;;;;;17.87;70.26;95205.81;4801307;29;20526;-68
2023/09/11 00:13:42;;;;;;;6.78;2.40;;;;;;;17.82;70.49;95205.72;4801532;29;20808;-68
2023/09/11 00:16:08;;;;;;;7.40;2.20;;;;;;;17.82;70.68;95211.06;4802923;29;20511;-68
2023/09/11 00:18:33;;;;;;;6.27;2.10;;;;;;;17.77;70.76;95208.34;4805397;29;20938;-69
2023/09/11 00:20:59;;;;;;;3.57;2.10;;;;;;;17.95;70.13;95208.03;4804916;29;20432;-68
2023/09/11 00:23:24;;;;;;;3.72;2.28;;;;;;;17.92;69.86;95206.66;4805481;29;20188;-68
2023/09/11 00:25:49;;;;;;;7.30;2.20;;;;;;;17.95;70.00;95202.72;4804550;29;20439;-68
2023/09/11 00:28:15;;;;;;;6.07;2.40;;;;;;;17.94;69.86;95211.75;4805576;29;20187;-68
2023/09/11 00:30:40;;;;;;;9.88;2.42;;;;;;;17.88;70.15;95210.91;4805136;29;20314;-69
2023/09/11 00:33:06;;;;;;;4.18;2.03;;;;;;;17.68;70.49;95189.31;4805387;29;20202;-68
2023/09/11 00:35:31;;;;;;;5.85;2.05;;;;;;;17.78;70.34;95210.75;4805196;29;20195;-68
2023/09/11 00:37:56;;;;;;;4.20;2.20;;;;;;;17.78;70.78;95212.63;4804867;29;20912;-68
2023/09/11 00:40:22;;;;;;;6.53;2.38;;;;;;;17.80;70.54;95208.66;4805189;29;20217;-69
2023/09/11 00:42:47;;;;;;;4.25;2.10;;;;;;;17.80;70.43;95210.53;4805096;29;20240;-69
2023/09/11 00:45:13;;;;;;;5.67;2.30;;;;;;;17.61;71.15;95212.63;4804626;29;20491;-68
2023/09/11 00:47:41;;;;;;;4.70;2.33;;;;;;;17.48;71.82;95205.78;4788033;29;20467;-68
2023/09/11 00:50:09;;;;;;;6.00;2.15;;;;;;;17.53;71.72;95211.19;4805060;29;20482;-68
2023/09/11 00:52:35;;;;;;;4.88;1.98;;;;;;;17.49;71.64;95212.72;4804884;29;20211;-68
2023/09/11 00:55:01;;;;;;;4.43;2.10;;;;;;;17.47;71.32;95188.19;4804825;29;20574;-69
2023/09/11 00:57:26;;;;;;;3.38;1.95;;;;;;;17.64;71.21;95212.19;4805222;29;20190;-69
2023/09/11 00:59:52;;;;;;;3.97;2.05;;;;;;;17.65;70.92;95206.59;4805098;29;20187;-69
2023/09/11 01:02:18;;;;;;;6.57;1.90;;;;;;;17.66;70.89;95202.06;4803770;29;20436;-69
2023/09/11 01:04:44;;;;;;;6.40;2.20;;;;;;;17.57;71.45;95198.19;4803712;29;20443;-69
2023/09/11 01:07:13;;;;;;;4.40;2.10;;;;;;;17.64;70.84;95206.84;4784740;30;20204;-69
2023/09/11 01:09:39;;;;;;;4.40;2.42;;;;;;;17.64;71.01;95196.22;4786959;29;20260;-69
2023/09/11 01:12:05;;;;;;;5.10;2.25;;;;;;;17.66;70.84;95202.88;4786916;29;20184;-69
2023/09/11 01:14:33;;;;;;;2.58;1.70;;;;;;;17.69;70.44;95207.72;4786770;29;20189;-69
2023/09/11 01:17:13;;;;;;;3.17;1.95;;;;;;;17.65;70.56;95209.25;4786332;29;20444;-69
2023/09/11 01:19:59;;;;;;;5.03;1.90;;;;;;;17.65;70.60;95203.91;4783604;30;20433;-69
2023/09/11 01:22:30;;;;;;;4.38;2.08;;;;;;;17.65;70.69;95203.13;4786454;29;20614;-69
2023/09/11 01:25:19;;;;;;;8.27;1.80;;;;;;;17.68;70.55;95205.28;4786425;29;20702;-69
2023/09/11 01:28:03;;;;;;;3.10;1.92;;;;;;;17.58;71.17;95202.47;4791485;29;20545;-69
2023/09/11 01:30:29;;;;;;;3.03;1.80;;;;;;;17.54;71.03;95201.34;4803811;29;20460;-69
2023/09/11 01:32:54;;;;;;;3.13;1.90;;;;;;;17.53;71.09;95208.53;4803548;29;20509;-69
2023/09/11 01:35:20;;;;;;;6.67;1.90;;;;;;;17.35;71.62;95203.47;4803742;29;20450;-68
2023/09/11 01:37:46;;;;;;;5.57;1.70;;;;;;;17.12;72.31;95198.34;4803605;29;20473;-69
2023/09/11 01:40:11;;;;;;;5.63;1.83;;;;;;;16.94;73.25;95192.22;4804277;29;20213;-68
2023/09/11 01:42:52;;;;;;;3.83;1.67;;;;;;;16.87;73.58;95190.75;4803176;29;20472;-68
2023/09/11 01:45:18;;;;;;;11.57;2.30;;;;;;;16.80;74.17;95193.56;4803983;29;20187;-69
2023/09/11 01:47:45;;;;;;;6.25;2.28;;;;;;;16.81;74.08;95191.72;4804127;29;20219;-69
2023/09/11 01:50:15;;;;;;;3.53;1.95;;;;;;;16.77;74.28;95188.75;4802843;29;20936;-68
2023/09/11 01:52:43;;;;;;;4.40;2.40;;;;;;;16.76;74.27;95192.47;4802714;29;20525;-69
2023/09/11 01:55:09;;;;;;;3.47;1.70;;;;;;;16.73;74.63;95187.59;4803751;29;20427;-68
2023/09/11 01:57:34;;;;;;;5.32;1.98;;;;;;;16.63;74.00;95163.50;4800120;29;20949;-69
2023/09/11 02:00:00;;;;;;;4.57;1.80;;;;;;;16.90;73.85;95192.94;4802770;29;20442;-69
2023/09/11 02:02:29;;;;;;;4.10;2.03;;;;;;;16.83;73.85;95186.97;4804009;29;20189;-69
2023/09/11 02:04:55;;;;;;;5.70;2.17;;;;;;;16.81;73.86;95187.22;4803431;29;20501;-69
2023/09/11 02:07:20;;;;;;;2.97;1.50;;;;;;;16.79;74.02;95189.31;4803645;29;20208;-69
2023/09/11 02:09:46;;;;;;;10.63;3.00;;;;;;;16.59;74.40;95173.00;4803628;29;20195;-68
2023/09/11 02:12:11;;;;;;;5.13;2.07;;;;;;;16.62;74.75;95196.44;4794565;29;20514;-68
2023/09/11 02:14:36;;;;;;;3.73;2.27;;;;;;;16.65;74.67;95187.19;4802704;29;20897;-68
2023/09/11 02:17:02;;;;;;;3.80;2.10;;;;;;;16.67;74.52;95191.25;4803177;29;20507;-68
2023/09/11 02:19:31;;;;;;;4.45;2.05;;;;;;;16.67;74.29;95187.78;4802571;29;20427;-69
2023/09/11 02:21:57;;;;;;;6.07;1.85;;;;;;;16.56;74.68;95187.56;4803250;29;20608;-68
2023/09/11 02:24:22;;;;;;;4.90;2.40;;;;;;;16.62;74.65;95190.31;4802344;29;20447;-68
2023/09/11 02:26:48;;;;;;;4.35;2.17;;;;;;;16.53;74.50;95187.22;4802256;29;20990;-68
2023/09/11 02:29:13;;;;;;;5.30;2.33;;;;;;;16.42;75.18;95188.09;4802853;29;20436;-68
2023/09/11 02:31:38;;;;;;;3.60;1.93;;;;;;;16.44;75.08;95184.16;4799497;29;20547;-68
2023/09/11 02:34:04;;;;;;;4.13;2.00;;;;;;;16.39;75.48;95180.59;4785115;29;20497;-68
2023/09/11 02:36:29;;;;;;;3.92;1.92;;;;;;;16.37;75.54;95182.69;4784317;30;20875;-68
2023/09/11 02:38:55;;;;;;;5.77;1.87;;;;;;;16.38;75.21;95174.47;4784341;29;20550;-68
2023/09/11 02:41:20;;;;;;;4.68;2.35;;;;;;;16.35;75.48;95179.44;4784756;29;20444;-68
2023/09/11 02:43:45;;;;;;;3.90;1.90;;;;;;;16.26;75.57;95171.06;4801221;29;20888;-68
2023/09/11 02:46:11;;;;;;;7.70;2.30;;;;;;;16.27;75.88;95185.97;4802930;29;20207;-68
2023/09/11 02:48:43;;;;;;;4.78;2.33;;;;;;;16.14;76.22;95163.16;4802948;29;20191;-68
2023/09/11 02:51:08;;;;;;;6.93;2.03;;;;;;;16.24;75.78;95165.19;4802935;29;20187;-69
2023/09/11 02:53:33;;;;;;;3.78;2.10;;;;;;;16.33;75.84;95178.91;4803060;29;20175;-69
2023/09/11 02:55:59;;;;;;;6.60;2.20;;;;;;;16.36;75.60;95181.06;4802722;29;20638;-68
2023/09/11 02:58:24;;;;;;;6.05;2.17;;;;;;;16.32;75.38;95164.81;4802792;29;20184;-69
2023/09/11 03:00:50;;;;;;;2.75;1.88;;;;;;;16.38;75.33;95171.81;4803065;29;20215;-68
2023/09/11 03:03:15;;;;;;;4.57;2.15;;;;;;;16.39;75.26;95175.28;4802878;29;20188;-69
2023/09/11 03:05:40;;;;;;;4.28;1.67;;;;;;;16.38;75.45;95176.34;4802944;29;20191;-69
2023/09/11 03:08:06;;;;;;;2.75;1.73;;;;;;;16.40;75.19;95179.56;4802750;29;20233;-68
2023/09/11 03:10:32;;;;;;;5.35;1.90;;;;;;;16.36;75.19;95181.06;4802738;29;20188;-69
2023/09/11 03:12:57;;;;;;;6.57;2.67;;;;;;;16.32;75.31;95179.94;4802560;29;20191;-69
2023/09/11 03:15:30;;;;;;;5.22;1.85;;;;;;;16.26;75.52;95178.25;4802395;29;20625;-68
2023/09/11 03:17:55;;;;;;;7.10;3.90;;;;;;;16.16;75.88;95171.72;4802743;29;20617;-69
2023/09/11 03:20:21;;;;;;;10.32;3.80;;;;;;;16.14;76.02;95175.63;4802465;29;20252;-69
2023/09/11 03:22:46;;;;;;;5.90;3.60;;;;;;;16.00;76.08;95159.16;4802691;29;20657;-68
2023/09/11 03:25:12;;;;;;;4.32;3.25;;;;;;;15.91;76.67;95170.41;4802662;29;20195;-69
2023/09/11 03:27:37;;;;;;;7.00;2.80;;;;;;;15.80;77.72;95177.38;4801207;29;20452;-68
2023/09/11 03:30:03;;;;;;;7.20;2.70;;;;;;;15.73;77.52;95166.88;4802445;29;20250;-69
2023/09/11 03:32:28;;;;;;;3.28;2.58;;;;;;;15.73;77.59;95169.53;4802689;29;20195;-69
2023/09/11 03:34:54;;;;;;;5.93;2.60;;;;;;;15.72;77.77;95169.78;4787157;29;20195;-68
2023/09/11 03:37:20;;;;;;;11.15;3.28;;;;;;;15.53;77.87;95144.38;4784109;29;20263;-69
2023/09/11 03:39:46;;;;;;;8.77;2.30;;;;;;;15.69;77.78;95171.03;4783772;30;20195;-69
2023/09/11 03:42:11;;;;;;;4.45;2.60;;;;;;;15.65;77.71;95169.09;4783716;29;20177;-68
2023/09/11 03:44:37;;;;;;;6.97;2.47;;;;;;;15.61;77.93;95170.59;4784082;29;20511;-68
2023/09/11 03:47:02;;;;;;;4.03;2.10;;;;;;;15.57;77.90;95175.53;4784022;29;20220;-69
2023/09/11 03:49:28;;;;;;;5.13;2.70;;;;;;;15.53;77.87;95176.22;4784084;29;20192;-69
2023/09/11 03:51:53;;;;;;;5.63;2.50;;;;;;;15.45;78.03;95172.91;4786129;29;20180;-68
2023/09/11 03:54:18;;;;;;;7.47;2.78;;;;;;;15.41;78.25;95178.88;4794189;29;20677;-69
2023/09/11 03:56:44;;;;;;;5.32;2.67;;;;;;;15.33;78.33;95173.94;4805582;29;20270;-69
2023/09/11 03:59:09;;;;;;;3.75;2.80;;;;;;;14.91;78.39;95112.28;4805542;29;20621;-69
2023/09/11 04:01:35;;;;;;;6.82;2.58;;;;;;;15.29;78.28;95180.75;4787689;29;20216;-69
2023/09/11 04:04:00;;;;;;;8.27;3.15;;;;;;;15.26;78.32;95182.03;4787926;29;20596;-69
2023/09/11 04:06:25;;;;;;;11.43;3.15;;;;;;;15.16;78.29;95170.38;4788043;29;20252;-68
2023/09/11 04:08:51;;;;;;;13.52;3.70;;;;;;;15.22;78.15;95191.47;4787782;30;20272;-69
2023/09/11 04:11:19;;;;;;;7.07;3.70;;;;;;;15.10;78.44;95169.47;4788339;29;20193;-69
2023/09/11 04:13:45;;;;;;;5.35;3.03;;;;;;;15.16;78.50;95188.94;4785698;29;20215;-68
2023/09/11 04:16:10;;;;;;;7.60;3.38;;;;;;;15.08;78.88;95182.13;4803670;29;20212;-68
2023/09/11 04:18:35;;;;;;;11.98;3.85;;;;;;;15.02;79.15;95191.03;4805678;29;20266;-69
2023/09/11 04:21:03;;;;;;;8.30;3.22;;;;;;;14.95;79.21;95175.22;4805585;29;20194;-69
2023/09/11 04:23:28;;;;;;;12.95;3.70;;;;;;;14.96;79.57;95191.94;4801404;29;20271;-69
2023/09/11 04:25:54;;;;;;;10.23;4.03;;;;;;;14.98;79.72;95187.19;4787399;29;20280;-69
2023/09/11 04:28:20;;;;;;;17.40;4.85;;;;;;;14.99;79.75;95192.28;4793465;29;20184;-69
2023/09/11 04:30:45;;;;;;;13.98;4.78;;;;;;;14.98;79.75;95195.97;4805183;29;20644;-69
2023/09/11 04:33:11;;;;;;;16.85;5.82;;;;;;;14.87;79.76;95166.81;4805202;29;20678;-69
2023/09/11 04:35:36;;;;;;;11.95;4.95;;;;;;;15.02;79.70;95191.03;4793560;29;20184;-69
2023/09/11 04:38:01;;;;;;;18.05;5.90;;;;;;;15.00;79.82;95191.25;4787338;30;20626;-68
2023/09/11 04:40:27;;;;;;;17.98;5.45;;;;;;;15.08;80.04;95195.41;4787503;29;20192;-68
2023/09/11 04:42:53;;;;;;;17.15;5.72;;;;;;;15.11;80.21;95200.25;4787367;30;20223;-68
2023/09/11 04:45:18;;;;;;;12.63;6.85;;;;;;;15.18;79.99;95197.47;4787220;29;20238;-69
2023/09/11 04:47:43;;;;;;;13.07;6.10;;;;;;;15.22;79.91;95204.72;4787080;30;20324;-69
2023/09/11 04:50:09;;;;;;;22.58;6.93;;;;;;;15.27;80.18;95193.44;4787880;29;20186;-69
2023/09/11 04:52:35;;;;;;;16.40;7.72;;;;;;;15.37;79.40;95194.47;4795849;29;20184;-68
2023/09/11 04:55:00;;;;;;;20.95;8.45;;;;;;;15.39;79.38;95194.25;4794328;29;20207;-68
2023/09/11 04:57:25;;;;;;;23.90;8.27;;;;;;;15.40;79.41;95199.31;4796584;29;20271;-69
2023/09/11 04:59:51;;;;;;;17.80;6.95;;;;;;;15.41;79.14;95194.81;4792930;29;20194;-68
2023/09/11 05:02:16;;;;;;;15.40;6.85;;;;;;;15.47;79.28;95189.41;4795570;29;20231;-68
2023/09/11 05:04:42;;;;;;;10.20;5.75;;;;;;;15.69;79.10;95197.59;4786298;29;20251;-69
2023/09/11 05:07:07;;;;;;;16.17;5.22;;;;;;;16.00;77.68;95196.34;4789200;29;20570;-68
2023/09/11 05:09:33;;;;;;;11.82;4.85;;;;;;;16.29;76.98;95199.00;4793972;29;20184;-68
2023/09/11 05:11:58;;;;;;;12.43;4.78;;;;;;;16.53;75.79;95198.66;4796660;29;20183;-68
2023/09/11 05:14:24;;;;;;;13.82;5.25;;;;;;;16.87;74.93;95196.88;4793371;29;20184;-69
2023/09/11 05:16:50;;;;;;;18.00;7.97;;;;;;;17.06;73.94;95201.97;4794278;29;20305;-68
2023/09/11 05:19:15;;;;;;;14.38;7.05;;;;;;;17.33;73.41;95201.06;4786587;29;20267;-69
2023/09/11 05:21:41;;;;;;;9.93;4.45;;;;;;;17.61;71.98;95201.97;4786066;29;20196;-68
2023/09/11 05:24:07;;;;;;;11.80;3.67;;;;;;;17.77;71.04;95177.19;4786646;30;20196;-69
2023/09/11 05:26:32;;;;;;;10.90;4.78;;;;;;;18.17;70.43;95200.84;4786397;29;20219;-68
2023/09/11 05:28:58;;;;;;;8.27;4.15;;;;;;;18.50;69.53;95193.75;4793771;29;20202;-68
2023/09/11 05:31:23;;;;;;;17.40;3.38;;;;;;;18.76;68.16;95187.63;4794223;29;20235;-68
2023/09/11 05:33:49;;;;;;;10.75;3.53;;;;;;;19.04;66.81;95192.63;4787769;29;20177;-68
2023/09/11 05:36:14;;;;;;;10.02;3.40;;;;;;;19.30;66.21;95195.50;4786088;29;20215;-68
2023/09/11 05:38:40;;;;;;;7.70;3.50;;;;;;;19.54;66.02;95197.59;4786119;29;20193;-68
2023/09/11 05:41:06;;;;;;;13.75;3.70;;;;;;;19.67;64.57;95190.16;4786267;29;20196;-68
2023/09/11 05:43:31;;;;;;;10.75;3.58;;;;;;;19.92;63.69;95204.44;4786234;29;20196;-68
2023/09/11 05:45:57;;;;;;;6.90;2.97;;;;;;;20.10;63.26;95205.06;4785994;29;20192;-68
2023/09/11 05:48:23;;;;;;;4.53;2.90;;;;;;;20.23;62.29;95181.31;4785909;29;20220;-68
2023/09/11 05:50:48;;;;;;;5.80;3.05;;;;;;;20.58;61.91;95202.00;4786030;29;20653;-68
2023/09/11 05:53:13;;;;;;;6.90;3.05;;;;;;;20.89;60.41;95197.53;4785980;29;20639;-68
2023/09/11 05:55:39;;;;;;;3.97;2.97;;;;;;;21.20;59.57;95200.22;4786103;29;20188;-68
2023/09/11 05:58:04;;;;;;;6.90;3.70;;;;;;;21.32;58.04;95204.25;4786171;29;20188;-68
2023/09/11 06:00:30;;;;;;;6.55;2.92;;;;;;;21.29;57.82;95198.63;4785852;29;20184;-68
2023/09/11 06:02:55;;;;;;;9.55;3.10;;;;;;;21.38;57.80;95200.50;4785892;29;20188;-68
2023/09/11 06:05:22;;;;;;;5.82;3.08;;;;;;;21.49;57.54;95182.53;4785729;30;20189;-68
2023/09/11 06:07:47;;;;;;;8.80;2.88;;;;;;;21.84;57.50;95192.38;4785913;30;20220;-68
2023/09/11 06:10:13;;;;;;;6.28;2.70;;;;;;;22.01;56.64;95195.56;4785902;30;20637;-68
2023/09/11 06:12:39;;;;;;;6.93;2.83;;;;;;;22.11;55.55;95197.41;4785989;29;20188;-69
2023/09/11 06:15:05;;;;;;;4.35;2.38;;;;;;;22.09;56.28;95204.91;4783426;29;20201;-68
2023/09/11 06:17:32;;;;;;;5.90;2.70;;;;;;;22.33;56.05;95199.69;4785940;29;20180;-70
2023/09/11 06:19:57;;;;;;;4.80;2.20;;;;;;;22.42;55.02;95204.22;4784191;29;20548;-71
2023/09/11 06:22:22;;;;;;;5.00;2.40;;;;;;;22.44;54.86;95203.94;4785548;29;20191;-70
2023/09/11 06:24:48;;;;;;;12.52;3.65;;;;;;;22.44;54.33;95188.66;4790156;29;20184;-70
2023/09/11 06:27:13;;;;;;;6.43;2.90;;;;;;;22.68;54.23;95201.38;4803739;29;20676;-69
2023/09/11 06:29:39;;;;;;;7.18;3.00;;;;;;;22.31;53.27;95175.84;4803468;29;20192;-69
2023/09/11 06:32:05;;;;;;;11.63;3.22;;;;;;;22.13;54.18;95184.53;4803420;29;20314;-69
2023/09/11 06:34:31;;;;;;;16.20;2.83;;;;;;;22.49;54.65;95210.09;4803321;29;20190;-69
2023/09/11 06:36:58;;;;;;;4.25;2.67;;;;;;;22.84;52.78;95209.09;4803799;29;20183;-70
2023/09/11 06:39:23;;;;;;;16.58;4.45;;;;;;;23.21;52.36;95208.56;4803868;29;20187;-70
2023/09/11 06:41:49;;;;;;;5.53;3.08;;;;;;;23.75;51.37;95204.06;4803648;29;20256;-70
2023/09/11 06:44:14;;;;;;;7.05;3.00;;;;;;;24.07;49.81;95206.94;4783672;29;20188;-70
2023/09/11 06:46:39;;;;;;;4.80;2.80;;;;;;;23.96;49.29;95195.50;4785193;29;20200;-70
2023/09/11 06:49:05;;;;;;;18.38;10.35;;;;;;;23.91;50.13;95203.63;4785138;29;20185;-70
2023/09/11 06:51:30;;;;;;;5.15;3.38;;;;;;;23.94;49.77;95205.75;4785245;29;20262;-70
2023/09/11 06:53:56;;;;;;;8.05;4.72;;;;;;;24.18;49.94;95207.63;4784941;29;20188;-70
2023/09/11 06:56:22;;;;;;;6.93;3.38;;;;;;;24.57;49.07;95202.03;4785060;29;20233;-70
2023/09/11 06:58:47;;;;;;;13.57;7.47;;;;;;;24.93;47.71;95213.16;4785076;29;20238;-70
2023/09/11 07:01:15;;;;;;;12.48;4.40;;;;;;;25.20;46.66;95202.50;4782811;29;20184;-70
2023/09/11 07:03:41;;;;;;;8.93;3.55;;;;;;;25.17;46.14;95208.47;4784895;29;20301;-70
2023/09/11 07:06:07;;;;;;;11.82;5.75;;;;;;;25.25;46.92;95207.81;4785157;29;20210;-69
2023/09/11 07:08:32;;;;;;;6.75;3.50;;;;;;;25.15;45.90;95206.09;4783441;30;20188;-70
2023/09/11 07:10:58;;;;;;;13.10;4.88;;;;;;;25.15;45.70;95206.09;4785112;29;20653;-70
2023/09/11 07:13:23;;;;;;;10.35;3.58;;;;;;;25.00;47.47;95202.78;4784775;29;20182;-69
2023/09/11 07:15:59;;;;;;;13.10;4.03;;;;;;;25.25;45.62;95202.44;4784916;29;20673;-69
2023/09/11 07:18:25;;;;;;;8.63;3.90;;;;;;;25.58;45.38;95200.50;4784897;29;20172;-69
2023/09/11 07:20:51;;;;;;;9.38;3.60;;;;;;;25.76;44.90;95180.00;4784884;30;20634;-69
2023/09/11 07:23:23;;;;;;;11.20;3.85;;;;;;;26.24;43.58;95200.09;4785101;29;20189;-68
2023/09/11 07:25:51;;;;;;;11.93;3.40;;;;;;;26.56;42.87;95193.78;4786943;29;20193;-69
2023/09/11 07:28:16;;;;;;;16.33;7.25;;;;;;;26.99;43.31;95194.19;4788431;29;20204;-67
2023/09/11 07:30:44;;;;;;;10.48;4.65;;;;;;;27.14;41.89;95197.66;4788385;30;20239;-67
2023/09/11 07:33:09;;;;;;;7.55;3.45;;;;;;;27.31;40.97;95198.59;4788365;29;20274;-67
2023/09/11 07:35:35;;;;;;;10.70;3.78;;;;;;;27.24;40.86;95192.81;4793137;29;20263;-67
2023/09/11 07:38:00;;;;;;;9.63;3.85;;;;;;;26.50;41.94;95167.97;4806412;29;20274;-67
2023/09/11 07:40:25;;;;;;;17.08;3.38;;;;;;;26.62;41.72;95189.88;4806476;29;20569;-67
2023/09/11 07:42:52;;;;;;;12.93;3.38;;;;;;;26.66;40.74;95195.47;4806459;29;20224;-67
2023/09/11 07:45:18;;;;;;;5.57;2.42;;;;;;;26.23;41.47;95195.00;4806116;29;20212;-67
2023/09/11 07:47:43;;;;;;;10.63;3.10;;;;;;;26.60;42.66;95189.38;4806195;29;20217;-67
2023/09/11 07:50:09;;;;;;;11.82;3.60;;;;;;;27.12;41.16;95189.84;4806237;29;20186;-67
2023/09/11 07:52:35;;;;;;;8.32;2.72;;;;;;;26.81;40.92;95189.72;4806279;29;20208;-67
2023/09/11 07:55:02;;;;;;;5.60;3.28;;;;;;;26.67;41.33;95184.34;4805857;29;20176;-66
2023/09/11 07:57:30;;;;;;;10.25;3.60;;;;;;;26.17;42.00;95188.09;4805810;29;20230;-67
2023/09/11 07:59:56;;;;;;;6.38;3.25;;;;;;;25.90;42.75;95184.28;4806140;29;20188;-67
2023/09/11 08:02:22;;;;;;;8.50;3.83;;;;;;;25.98;43.28;95176.59;4806097;29;20184;-67
2023/09/11 08:04:47;;;;;;;5.55;3.30;;;;;;;25.93;43.55;95186.41;4806038;29;20188;-67
2023/09/11 08:07:13;;;;;;;7.90;3.65;;;;;;;26.32;42.30;95185.13;4805915;29;20631;-66
2023/09/11 08:09:38;;;;;;;10.07;3.45;;;;;;;26.97;40.75;95184.81;4805832;29;20180;-67
2023/09/11 08:12:03;;;;;;;13.02;3.55;;;;;;;26.89;39.23;95180.91;4805803;29;20176;-67
2023/09/11 08:14:30;;;;;;;9.30;3.10;;;;;;;26.85;39.81;95173.69;4805733;29;20779;-67
2023/09/11 08:16:55;;;;;;;14.95;3.90;;;;;;;27.53;39.91;95181.53;4805603;29;20258;-67
2023/09/11 08:19:20;;;;;;;8.15;2.70;;;;;;;27.81;37.03;95175.97;4805731;29;20278;-67
2023/09/11 08:21:46;;;;;;;6.95;2.75;;;;;;;28.17;36.17;95173.13;4805695;29;20661;-68
2023/09/11 08:24:11;;;;;;;7.13;2.90;;;;;;;28.38;36.26;95174.91;4805568;29;20192;-67
2023/09/11 08:26:38;;;;;;;5.72;2.95;;;;;;;27.93;36.26;95166.16;4805692;29;20225;-67
2023/09/11 08:29:04;;;;;;;11.10;2.95;;;;;;;27.54;36.92;95166.13;4805592;29;20219;-69
2023/09/11 08:31:29;;;;;;;3.92;2.90;;;;;;;27.33;37.04;95168.53;4786302;29;20224;-69
2023/09/11 08:33:55;;;;;;;6.63;2.60;;;;;;;27.21;38.41;95162.88;4787803;30;20213;-68
2023/09/11 08:36:21;;;;;;;12.25;3.22;;;;;;;26.92;39.29;95155.97;4790087;29;20243;-69
2023/09/11 08:38:47;;;;;;;4.10;3.17;;;;;;;27.32;37.87;95146.09;4781852;29;20245;-69
2023/09/11 08:41:14;;;;;;;5.57;2.70;;;;;;;27.84;36.79;95159.91;4805661;29;20191;-69
2023/09/11 08:43:39;;;;;;;9.80;2.80;;;;;;;27.96;35.81;95160.09;4803250;29;20197;-69
2023/09/11 08:46:07;;;;;;;8.88;2.20;;;;;;;27.42;36.13;95155.84;4788967;29;20176;-69
2023/09/11 08:48:36;;;;;;;6.45;2.65;;;;;;;27.05;37.15;95148.94;4787153;29;20192;-69
2023/09/11 08:51:08;;;;;;;7.07;2.50;;;;;;;27.31;37.42;95157.22;4789851;29;20278;-69
2023/09/11 08:53:35;;;;;;;6.78;2.20;;;;;;;26.44;38.26;95146.81;4789851;29;20559;-69
2023/09/11 08:56:02;;;;;;;5.53;2.78;;;;;;;26.27;39.59;95150.94;4789813;29;20180;-68
2023/09/11 08:58:31;;;;;;;7.38;2.67;;;;;;;26.38;38.49;95146.09;4788904;29;20213;-69
2023/09/11 09:00:57;;;;;;;7.55;2.58;;;;;;;26.13;39.52;95149.28;4793077;29;20834;-69
2023/09/11 09:03:25;;;;;;;5.53;2.75;;;;;;;26.26;39.55;95148.53;4793671;29;20199;-68
2023/09/11 09:05:51;;;;;;;6.43;2.40;;;;;;;26.71;38.58;95137.81;4789341;29;20211;-68
2023/09/11 09:08:19;;;;;;;4.43;2.33;;;;;;;26.98;38.53;95135.06;4794512;29;20247;-68
2023/09/11 09:10:45;;;;;;;9.80;2.63;;;;;;;27.12;37.60;95146.59;4793628;29;20172;-68
2023/09/11 09:13:11;;;;;;;8.60;2.67;;;;;;;27.12;37.61;95146.59;4794185;29;20223;-68
2023/09/11 09:15:42;;;;;;;6.57;2.33;;;;;;;26.82;38.35;95136.47;4793837;29;20216;-68
2023/09/11 09:18:08;;;;;;;6.07;3.15;;;;;;;27.10;37.23;95134.47;4792370;29;20615;-68
2023/09/11 09:20:34;;;;;;;10.55;2.50;;;;;;;26.97;38.18;95126.16;4793062;29;20181;-68
2023/09/11 09:23:00;;;;;;;4.43;2.53;;;;;;;26.79;38.24;95129.78;4791744;29;20569;-68
2023/09/11 09:25:27;;;;;;;7.25;2.60;;;;;;;26.60;38.96;95121.84;4791370;29;20214;-69
2023/09/11 09:27:53;;;;;;;5.90;2.60;;;;;;;26.56;38.76;95123.53;4794041;29;20254;-68
2023/09/11 09:30:23;;;;;;;7.03;2.80;;;;;;;26.81;38.63;95121.38;4791950;29;20622;-68
2023/09/11 09:32:50;;;;;;;7.68;3.28;;;;;;;26.34;38.99;95122.72;4791922;29;20183;-68
2023/09/11 09:35:20;;;;;;;4.15;2.60;;;;;;;26.23;39.72;95124.78;4793801;29;20661;-67
2023/09/11 09:37:50;;;;;;;10.75;3.03;;;;;;;25.85;39.83;95108.84;4791465;29;20184;-67
2023/09/11 09:40:34;;;;;;;6.32;3.05;;;;;;;25.92;40.61;95122.75;4793469;29;20185;-68
2023/09/11 09:43:01;;;;;;;7.15;2.65;;;;;;;25.89;40.12;95111.75;4789499;29;20181;-68
2023/09/11 09:45:29;;;;;;;6.75;2.50;;;;;;;25.62;41.66;95107.16;4794230;29;20184;-67
2023/09/11 09:48:05;;;;;;;7.72;3.05;;;;;;;25.74;40.65;95082.38;4787929;29;20200;-68
2023/09/11 09:50:48;;;;;;;4.72;2.42;;;;;;;25.90;39.66;95097.97;4785173;29;20611;-68
2023/09/11 09:53:35;;;;;;;7.88;2.33;;;;;;;25.76;40.37;95105.25;4783392;29;20241;-67
2023/09/11 09:56:05;;;;;;;11.02;3.10;;;;;;;25.10;41.82;95086.78;4783885;29;20180;-67
2023/09/11 09:58:36;;;;;;;4.63;2.50;;;;;;;25.25;42.76;95091.13;4784203;29;20172;-67
2023/09/11 10:01:09;;;;;;;9.95;2.58;;;;;;;25.11;41.64;95058.72;4785259;29;20192;-67
2023/09/11 10:03:45;;;;;;;3.88;2.78;;;;;;;25.50;42.26;95085.25;4785347;29;20195;-67
2023/09/11 10:06:16;;;;;;;3.20;2.45;;;;;;;25.69;40.60;95083.25;4785569;29;20178;-67
2023/09/11 10:08:41;;;;;;;9.30;2.92;;;;;;;25.54;40.89;95080.84;4783739;29;20207;-67
2023/09/11 10:11:07;;;;;;;3.88;2.35;;;;;;;25.33;41.44;95088.53;4785379;29;20677;-67
2023/09/11 10:13:35;;;;;;;4.20;2.28;;;;;;;25.39;42.07;95081.13;4785136;29;20195;-67
2023/09/11 10:16:02;;;;;;;7.93;2.45;;;;;;;25.52;41.33;95081.13;4783623;29;20220;-67
2023/09/11 10:18:30;;;;;;;5.93;2.97;;;;;;;25.47;41.31;95081.25;4787335;29;20181;-67
2023/09/11 10:20:57;;;;;;;3.38;2.67;;;;;;;25.62;41.82;95079.38;4793884;29;20195;-67
2023/09/11 10:23:23;;;;;;;7.30;2.78;;;;;;;25.76;41.04;95072.91;4793320;29;20196;-68
2023/09/11 10:25:53;;;;;;;6.20;2.70;;;;;;;25.82;40.64;95070.88;4787611;29;20245;-67
2023/09/11 10:28:37;;;;;;;2.70;2.15;;;;;;;25.73;40.58;95072.69;4785059;29;20255;-67
2023/09/11 10:31:21;;;;;;;7.05;2.78;;;;;;;25.35;41.35;95069.34;4785427;29;20232;-67
2023/09/11 10:33:54;;;;;;;6.53;2.92;;;;;;;25.03;41.43;95067.50;4784459;29;20201;-67
2023/09/11 10:36:22;;;;;;;6.97;2.53;;;;;;;24.74;42.28;95056.91;4784998;29;20264;-67
2023/09/11 10:38:52;;;;;;;9.43;2.45;;;;;;;24.81;42.69;95054.66;4785064;29;20275;-67
2023/09/11 10:41:18;;;;;;;5.30;2.60;;;;;;;24.87;42.57;95058.84;4784844;29;20184;-67
2023/09/11 10:43:47;;;;;;;5.50;2.50;;;;;;;24.87;42.23;95037.31;4784746;29;20663;-67
2023/09/11 10:46:31;;;;;;;7.22;2.67;;;;;;;25.11;42.69;95054.16;4784575;29;20187;-67
2023/09/11 10:48:59;;;;;;;11.63;2.50;;;;;;;25.01;41.53;95043.53;4784892;29;20200;-67
2023/09/11 10:51:28;;;;;;;4.40;1.90;;;;;;;25.00;41.91;95025.78;4784521;29;20279;-67
2023/09/11 10:53:53;;;;;;;6.70;2.20;;;;;;;25.02;41.37;95050.53;4784513;29;20180;-67
2023/09/11 10:56:19;;;;;;;7.05;2.75;;;;;;;24.82;41.65;95042.78;4784606;29;20187;-66
2023/09/11 10:58:44;;;;;;;6.13;2.25;;;;;;;24.96;40.91;95048.22;4785264;29;20188;-69
2023/09/11 11:01:13;;;;;;;3.50;2.40;;;;;;;24.79;41.18;95000.28;4784273;29;20199;-68
2023/09/11 11:03:41;;;;;;;4.15;2.38;;;;;;;25.02;41.08;95031.66;4784653;29;20571;-67
2023/09/11 11:06:10;;;;;;;6.03;2.30;;;;;;;25.08;40.88;95024.31;4784648;29;20192;-67
2023/09/11 11:08:36;;;;;;;4.68;2.30;;;;;;;25.28;40.59;95033.91;4784310;29;20305;-67
2023/09/11 11:11:03;;;;;;;6.95;2.47;;;;;;;25.23;40.31;95028.59;4784495;29;20657;-68
2023/09/11 11:13:29;;;;;;;8.10;2.88;;;;;;;25.35;39.08;95043.19;4782144;29;20273;-68
2023/09/11 11:16:22;;;;;;;11.35;2.67;;;;;;;25.16;39.61;95039.78;4784353;29;20192;-68
2023/09/11 11:18:51;;;;;;;3.95;2.10;;;;;;;25.16;39.23;95034.41;4783619;29;20331;-68
2023/09/11 11:21:18;;;;;;;5.32;2.60;;;;;;;25.20;39.67;95032.69;4784136;29;20260;-68
2023/09/11 11:23:54;;;;;;;6.35;2.72;;;;;;;25.28;40.15;95025.81;4784325;29;20211;-68
2023/09/11 11:26:19;;;;;;;15.80;2.58;;;;;;;25.26;39.95;95001.03;4784166;29;20207;-68
2023/09/11 11:28:45;;;;;;;6.47;2.35;;;;;;;25.50;40.04;95018.63;4783933;29;20184;-68
2023/09/11 11:31:18;;;;;;;8.50;2.55;;;;;;;25.64;38.83;95015.94;4783903;29;20247;-68